createdAt,value
2022-12-19T00:00:41.427Z,9.711744
2022-12-19T00:01:41.517Z,9.712031
2022-12-19T00:02:41.571Z,9.712050
2022-12-19T00:03:41.454Z,9.712070
2022-12-19T00:04:41.395Z,9.711942
2022-12-19T00:05:41.379Z,9.711968
2022-12-19T00:06:43.729Z,9.711835
2022-12-19T00:07:41.370Z,9.711794
2022-12-19T00:08:41.370Z,9.711795
2022-12-19T00:09:41.364Z,9.711850
2022-12-19T00:10:41.342Z,9.711954
2022-12-19T00:11:41.350Z,9.712256
2022-12-19T00:12:41.331Z,9.711623
2022-12-19T00:13:41.467Z,9.711287
2022-12-19T00:14:42.314Z,9.711297
2022-12-19T00:15:41.315Z,9.711089
2022-12-19T00:16:41.355Z,9.711173
2022-12-19T00:17:41.300Z,9.711535
2022-12-19T00:18:41.288Z,9.711575
2022-12-19T00:19:41.295Z,9.711615
2022-12-19T00:20:41.281Z,9.711550
2022-12-19T00:21:41.255Z,9.711543
2022-12-19T00:22:43.319Z,9.711564
2022-12-19T00:23:41.247Z,9.711635
2022-12-19T00:24:41.254Z,9.711602
2022-12-19T00:25:41.230Z,9.711569
2022-12-19T00:30:41.833Z,9.710594
2022-12-19T00:31:41.954Z,9.710867
2022-12-19T00:32:41.812Z,9.711235
2022-12-19T00:33:43.659Z,9.711465
2022-12-19T00:34:41.804Z,9.711579
2022-12-19T00:35:41.800Z,9.711623
2022-12-19T00:36:41.793Z,9.711585
2022-12-19T00:37:49.428Z,9.711539
2022-12-19T00:38:42.867Z,9.711560
2022-12-19T00:39:41.776Z,9.711519
2022-12-19T00:40:41.768Z,9.711659
2022-12-19T00:41:42.570Z,9.711579
2022-12-19T00:42:41.743Z,9.711486
2022-12-19T00:43:41.739Z,9.711506
2022-12-19T00:44:41.722Z,9.711474
2022-12-19T00:45:41.798Z,9.711521
2022-12-19T00:46:41.718Z,9.711435
2022-12-19T00:47:41.762Z,9.711506
2022-12-19T00:48:41.710Z,9.711549
2022-12-19T00:49:41.691Z,9.711624
2022-12-19T00:50:42.152Z,9.711632
2022-12-19T00:51:41.675Z,9.711514
2022-12-19T00:52:41.666Z,9.711695
2022-12-19T00:53:41.753Z,9.711659
2022-12-19T00:54:41.987Z,9.711595
2022-12-19T00:55:41.624Z,9.711765
2022-12-19T00:56:41.639Z,9.711815
2022-12-19T00:57:41.639Z,9.711830
2022-12-19T00:58:46.547Z,9.711782
2022-12-19T00:59:43.602Z,9.711736
2022-12-19T01:00:42.287Z,9.711673
2022-12-19T01:01:42.049Z,9.711784
2022-12-19T01:02:41.660Z,9.711708
2022-12-19T01:03:52.914Z,9.711617
2022-12-19T01:04:43.558Z,9.711680
2022-12-19T01:05:42.184Z,9.711705
2022-12-19T01:06:41.561Z,9.711847
2022-12-19T01:07:41.555Z,9.711800
2022-12-19T01:08:41.534Z,9.711961
2022-12-19T01:09:41.531Z,9.711961
2022-12-19T01:10:41.609Z,9.711761
2022-12-19T01:11:42.120Z,9.711727
2022-12-19T01:12:41.527Z,9.711717
2022-12-19T01:13:41.514Z,9.711745
2022-12-19T01:14:41.488Z,9.711735
2022-12-19T01:15:41.480Z,9.711727
2022-12-19T01:16:41.527Z,9.711709
2022-12-19T01:17:44.254Z,9.711699
2022-12-19T01:18:41.709Z,9.711751
2022-12-19T01:19:44.531Z,9.711718
2022-12-19T01:20:42.456Z,9.711693
2022-12-19T01:21:41.467Z,9.711678
2022-12-19T01:22:41.440Z,9.711726
2022-12-19T01:23:42.197Z,9.711676
2022-12-19T01:24:41.426Z,9.711684
2022-12-19T01:25:43.141Z,9.711714
2022-12-19T01:26:47.285Z,9.711778
2022-12-19T01:27:42.498Z,9.711891
2022-12-19T01:28:42.198Z,9.711702
2022-12-19T01:29:51.760Z,9.711760
2022-12-19T01:30:42.386Z,9.711719
2022-12-19T01:31:41.398Z,9.711683
2022-12-19T01:32:41.370Z,9.711699
2022-12-19T01:33:41.359Z,9.711653
2022-12-19T01:34:41.354Z,9.711668
2022-12-19T01:35:41.346Z,9.711705
2022-12-19T01:36:41.329Z,9.711724
2022-12-19T01:37:41.326Z,9.711601
2022-12-19T01:38:41.310Z,9.711666
2022-12-19T01:39:41.305Z,9.711630
2022-12-19T01:40:41.298Z,9.711732
2022-12-19T01:41:41.304Z,9.711663
2022-12-19T01:42:41.301Z,9.711619
2022-12-19T01:43:41.395Z,9.711632
2022-12-19T01:44:41.338Z,9.711637
2022-12-19T01:45:45.885Z,9.711703
2022-12-19T01:46:43.296Z,9.711737
2022-12-19T01:47:41.250Z,9.711719
2022-12-19T01:48:42.212Z,9.711748
2022-12-19T01:49:41.224Z,9.711870
2022-12-19T01:50:46.092Z,9.711871
2022-12-19T01:51:42.208Z,9.711705
2022-12-19T01:52:41.212Z,9.711760
2022-12-19T01:53:48.799Z,9.711710
2022-12-19T01:54:42.207Z,9.711703
2022-12-19T01:55:41.180Z,9.711654
2022-12-19T01:56:41.153Z,9.711658
2022-12-19T01:57:41.135Z,9.711798
2022-12-19T01:58:41.131Z,9.711766
2022-12-19T01:59:41.223Z,9.711884
2022-12-19T02:00:41.155Z,9.711749
2022-12-19T02:01:51.036Z,9.711751
2022-12-19T02:02:42.206Z,9.711622
2022-12-19T02:03:41.097Z,9.711718
2022-12-19T02:04:41.092Z,9.711856
2022-12-19T02:05:41.089Z,9.711607
2022-12-19T02:06:41.075Z,9.711605
2022-12-19T02:07:41.076Z,9.711597
2022-12-19T02:08:41.071Z,9.711520
2022-12-19T02:09:41.049Z,9.711523
2022-12-19T02:10:41.038Z,9.711669
2022-12-19T02:11:41.053Z,9.711737
2022-12-19T02:12:41.028Z,9.712092
2022-12-19T02:13:41.048Z,9.712071
2022-12-19T02:14:41.010Z,9.712065
2022-12-19T02:15:41.108Z,9.711875
2022-12-19T02:16:41.008Z,9.711866
2022-12-19T02:17:40.991Z,9.711875
2022-12-19T02:18:40.997Z,9.711667
2022-12-19T02:19:41.705Z,9.711859
2022-12-19T02:20:40.985Z,9.712194
2022-12-19T02:21:40.992Z,9.711965
2022-12-19T02:22:40.996Z,9.711991
2022-12-19T02:23:40.952Z,9.711871
2022-12-19T02:24:41.217Z,9.711905
2022-12-19T02:25:40.942Z,9.711792
2022-12-19T02:26:40.941Z,9.711746
2022-12-19T02:27:40.943Z,9.711537
2022-12-19T02:28:40.927Z,9.711785
2022-12-19T02:29:40.924Z,9.711712
2022-12-19T02:30:40.895Z,9.711833
2022-12-19T02:31:41.043Z,9.711852
2022-12-19T02:32:40.889Z,9.711884
2022-12-19T02:33:40.873Z,9.712556
2022-12-19T02:34:44.394Z,9.711969
2022-12-19T02:35:41.857Z,9.711829
2022-12-19T02:36:42.640Z,9.711644
2022-12-19T02:37:40.848Z,9.711417
2022-12-19T02:38:40.871Z,9.711763
2022-12-19T02:39:41.687Z,9.711899
2022-12-19T02:40:40.832Z,9.711572
2022-12-19T02:41:41.705Z,9.711340
2022-12-19T02:42:40.821Z,9.711677
2022-12-19T02:43:40.804Z,9.711389
2022-12-19T02:44:40.800Z,9.711226
2022-12-19T02:45:40.848Z,9.711644
2022-12-19T02:46:40.782Z,9.711318
2022-12-19T02:47:40.884Z,9.711656
2022-12-19T02:48:40.781Z,9.711600
2022-12-19T02:49:40.791Z,9.711661
2022-12-19T02:50:40.788Z,9.711985
2022-12-19T02:51:40.741Z,9.712213
2022-12-19T02:52:40.737Z,9.711784
2022-12-19T02:53:40.733Z,9.711919
2022-12-19T02:54:44.830Z,9.712268
2022-12-19T02:55:40.737Z,9.712350
2022-12-19T02:56:40.709Z,9.711715
2022-12-19T02:57:40.722Z,9.711644
2022-12-19T02:58:40.692Z,9.711568
2022-12-19T02:59:40.708Z,9.711646
2022-12-19T03:00:40.689Z,9.711688
2022-12-19T03:01:40.778Z,9.711694
2022-12-19T03:02:40.835Z,9.711684
2022-12-19T03:03:40.836Z,9.711715
2022-12-19T03:04:40.676Z,9.711808
2022-12-19T03:05:40.641Z,9.711864
2022-12-19T03:06:40.642Z,9.711842
2022-12-19T03:11:49.434Z,9.711660
2022-12-19T03:12:48.572Z,9.711605
2022-12-19T03:13:48.549Z,9.711535
2022-12-19T03:14:48.548Z,9.711700
2022-12-19T03:15:48.544Z,9.711629
2022-12-19T03:16:48.568Z,9.711608
2022-12-19T03:17:48.526Z,9.711705
2022-12-19T03:18:48.600Z,9.711565
2022-12-19T03:19:48.495Z,9.711654
2022-12-19T03:20:49.430Z,9.711576
2022-12-19T03:21:48.533Z,9.711740
2022-12-19T03:22:48.487Z,9.711694
2022-12-19T03:23:48.499Z,9.711733
2022-12-19T03:24:48.469Z,9.711796
2022-12-19T03:25:48.490Z,9.711716
2022-12-19T03:26:48.456Z,9.711756
2022-12-19T03:27:48.458Z,9.711736
2022-12-19T03:28:49.440Z,9.711795
2022-12-19T03:29:48.429Z,9.711718
2022-12-19T03:30:48.502Z,9.711758
2022-12-19T03:31:48.414Z,9.711634
2022-12-19T03:32:48.407Z,9.711653
2022-12-19T03:33:48.393Z,9.711546
2022-12-19T03:34:48.488Z,9.711765
2022-12-19T03:35:48.397Z,9.711604
2022-12-19T03:36:48.398Z,9.711639
2022-12-19T03:37:48.379Z,9.711620
2022-12-19T03:38:48.366Z,9.711834
2022-12-19T03:39:48.350Z,9.711732
2022-12-19T03:40:48.365Z,9.711667
2022-12-19T03:41:48.350Z,9.711679
2022-12-19T03:42:48.332Z,9.711743
2022-12-19T03:43:48.322Z,9.711567
2022-12-19T03:44:48.309Z,9.711664
2022-12-19T03:45:48.321Z,9.711663
2022-12-19T03:46:48.301Z,9.711779
2022-12-19T03:47:48.313Z,9.711787
2022-12-19T03:48:48.287Z,9.711581
2022-12-19T03:49:48.276Z,9.711634
2022-12-19T03:50:48.365Z,9.711882
2022-12-19T03:51:48.266Z,9.711809
2022-12-19T03:52:49.249Z,9.711547
2022-12-19T03:53:48.261Z,9.711623
2022-12-19T03:54:48.243Z,9.711575
2022-12-19T03:55:48.944Z,9.711590
2022-12-19T03:56:48.218Z,9.711474
2022-12-19T03:57:48.212Z,9.711628
2022-12-19T03:58:48.203Z,9.711698
2022-12-19T03:59:48.206Z,9.711791
2022-12-19T04:00:48.201Z,9.711628
2022-12-19T04:01:48.313Z,9.711673
2022-12-19T04:02:48.176Z,9.711745
2022-12-19T04:03:48.187Z,9.711742
2022-12-19T04:04:48.167Z,9.711857
2022-12-19T04:05:48.155Z,9.711705
2022-12-19T04:06:48.254Z,9.711587
2022-12-19T04:07:48.143Z,9.711393
2022-12-19T04:08:49.132Z,9.711647
2022-12-19T04:09:48.136Z,9.711460
2022-12-19T04:10:48.123Z,9.711444
2022-12-19T04:11:48.112Z,9.711740
2022-12-19T04:12:48.117Z,9.711738
2022-12-19T04:13:48.093Z,9.711800
2022-12-19T04:14:48.091Z,9.712094
2022-12-19T04:15:48.113Z,9.712111
2022-12-19T04:16:48.073Z,9.712103
2022-12-19T04:17:48.065Z,9.712145
2022-12-19T04:18:48.076Z,9.711794
2022-12-19T04:19:48.052Z,9.711935
2022-12-19T04:20:48.047Z,9.711542
2022-12-19T04:21:48.027Z,9.711522
2022-12-19T04:22:49.129Z,9.711721
2022-12-19T04:23:48.026Z,9.711755
2022-12-19T04:24:49.008Z,9.711815
2022-12-19T04:25:48.880Z,9.712090
2022-12-19T04:26:48.876Z,9.711905
2022-12-19T04:27:47.985Z,9.711271
2022-12-19T04:28:48.998Z,9.711205
2022-12-19T04:29:47.980Z,9.711248
2022-12-19T04:30:47.999Z,9.711293
2022-12-19T04:31:47.961Z,9.711505
2022-12-19T04:32:47.968Z,9.711451
2022-12-19T04:33:47.938Z,9.711456
2022-12-19T04:34:47.933Z,9.711532
2022-12-19T04:35:47.939Z,9.711536
2022-12-19T04:36:47.923Z,9.711316
2022-12-19T04:37:50.422Z,9.711154
2022-12-19T04:38:49.076Z,9.710986
2022-12-19T04:39:47.903Z,9.711039
2022-12-19T04:40:47.895Z,9.711042
2022-12-19T04:41:47.875Z,9.711782
2022-12-19T04:42:47.860Z,9.711648
2022-12-19T04:43:48.884Z,9.711527
2022-12-19T04:44:47.859Z,9.711431
2022-12-19T04:45:49.707Z,9.711439
2022-12-19T04:46:47.873Z,9.711566
2022-12-19T04:47:47.835Z,9.711681
2022-12-19T04:48:47.837Z,9.711846
2022-12-19T04:49:47.812Z,9.711777
2022-12-19T04:50:47.814Z,9.711581
2022-12-19T04:51:47.805Z,9.712011
2022-12-19T04:52:47.806Z,9.711829
2022-12-19T04:53:47.784Z,9.711656
2022-12-19T04:54:47.892Z,9.711740
2022-12-19T04:55:47.768Z,9.711575
2022-12-19T04:56:47.760Z,9.711478
2022-12-19T04:57:47.771Z,9.711534
2022-12-19T04:58:47.743Z,9.711489
2022-12-19T04:59:47.747Z,9.711412
2022-12-19T05:00:47.734Z,9.711649
2022-12-19T05:01:47.823Z,9.711650
2022-12-19T05:02:48.603Z,9.711381
2022-12-19T05:03:52.712Z,9.711591
2022-12-19T05:04:50.455Z,9.711588
2022-12-19T05:05:47.696Z,9.711412
2022-12-19T05:06:47.685Z,9.711627
2022-12-19T05:07:47.692Z,9.711427
2022-12-19T05:08:47.697Z,9.711405
2022-12-19T05:09:47.660Z,9.711474
2022-12-19T05:10:47.751Z,9.711900
2022-12-19T05:11:47.657Z,9.711770
2022-12-19T05:12:48.666Z,9.711519
2022-12-19T05:13:47.645Z,9.711307
2022-12-19T05:14:47.617Z,9.711065
2022-12-19T05:15:47.637Z,9.711433
2022-12-19T05:16:47.612Z,9.711890
2022-12-19T05:17:47.601Z,9.712286
2022-12-19T05:18:47.596Z,9.712401
2022-12-19T05:19:47.587Z,9.712540
2022-12-19T05:20:47.571Z,9.712301
2022-12-19T05:21:47.565Z,9.711804
2022-12-19T05:22:47.558Z,9.711824
2022-12-19T05:23:47.580Z,9.711450
2022-12-19T05:24:47.561Z,9.711912
2022-12-19T05:25:47.536Z,9.711672
2022-12-19T05:26:47.629Z,9.711770
2022-12-19T05:27:47.528Z,9.711566
2022-12-19T05:28:47.513Z,9.711614
2022-12-19T05:29:47.520Z,9.711667
2022-12-19T05:30:52.060Z,9.711604
2022-12-19T05:31:49.523Z,9.711753
2022-12-19T05:32:47.498Z,9.711764
2022-12-19T05:33:47.477Z,9.711640
2022-12-19T05:34:47.480Z,9.711637
2022-12-19T05:35:47.496Z,9.711606
2022-12-19T05:36:47.459Z,9.711515
2022-12-19T05:37:47.447Z,9.711528
2022-12-19T05:38:47.497Z,9.711629
2022-12-19T05:39:47.438Z,9.711679
2022-12-19T05:40:47.423Z,9.711779
2022-12-19T05:41:49.195Z,9.711718
2022-12-19T05:42:48.517Z,9.711609
2022-12-19T05:43:47.399Z,9.711664
2022-12-19T05:44:47.409Z,9.711770
2022-12-19T05:45:47.398Z,9.711649
2022-12-19T05:46:47.409Z,9.711709
2022-12-19T05:47:47.375Z,9.711625
2022-12-19T05:48:47.369Z,9.711466
2022-12-19T05:49:47.382Z,9.711716
2022-12-19T05:50:47.348Z,9.711611
2022-12-19T05:51:47.373Z,9.711357
2022-12-19T05:52:47.335Z,9.711646
2022-12-19T05:53:47.324Z,9.711549
2022-12-19T05:54:47.313Z,9.711497
2022-12-19T05:55:47.319Z,9.711613
2022-12-19T05:56:47.332Z,9.711469
2022-12-19T05:57:47.296Z,9.711566
2022-12-19T05:58:47.315Z,9.711666
2022-12-19T05:59:47.273Z,9.711680
2022-12-19T06:00:47.270Z,9.711638
2022-12-19T06:01:47.333Z,9.711654
2022-12-19T06:02:48.055Z,9.711646
2022-12-19T06:03:47.342Z,9.711658
2022-12-19T06:04:47.239Z,9.711720
2022-12-19T06:05:47.225Z,9.711674
2022-12-19T06:06:47.217Z,9.711695
2022-12-19T06:07:47.210Z,9.711572
2022-12-19T06:08:47.415Z,9.711728
2022-12-19T06:09:47.201Z,9.711742
2022-12-19T06:10:47.189Z,9.711554
2022-12-19T06:11:47.199Z,9.711828
2022-12-19T06:12:47.167Z,9.711708
2022-12-19T06:13:47.174Z,9.711709
2022-12-19T06:14:48.049Z,9.711808
2022-12-19T06:15:47.186Z,9.711772
2022-12-19T06:16:47.143Z,9.711802
2022-12-19T06:17:47.973Z,9.711805
2022-12-19T06:18:47.126Z,9.711886
2022-12-19T06:19:47.109Z,9.711981
2022-12-19T06:20:47.113Z,9.711973
2022-12-19T06:21:48.486Z,9.712050
2022-12-19T06:22:48.086Z,9.712310
2022-12-19T06:23:47.093Z,9.712316
2022-12-19T06:24:47.087Z,9.712306
2022-12-19T06:25:47.070Z,9.712120
2022-12-19T06:26:47.103Z,9.712062
2022-12-19T06:27:47.062Z,9.711962
2022-12-19T06:28:47.108Z,9.711957
2022-12-19T06:29:47.054Z,9.711868
2022-12-19T06:30:47.131Z,9.711952
2022-12-19T06:31:47.094Z,9.712105
2022-12-19T06:32:47.007Z,9.712025
2022-12-19T06:33:47.024Z,9.711851
2022-12-19T06:35:03.827Z,9.711891
2022-12-19T06:35:48.984Z,9.712095
2022-12-19T06:36:46.980Z,9.712133
2022-12-19T06:37:46.969Z,9.712152
2022-12-19T06:38:46.973Z,9.712005
2022-12-19T06:39:47.955Z,9.711885
2022-12-19T06:40:46.942Z,9.712055
2022-12-19T06:41:46.947Z,9.712236
2022-12-19T06:42:46.917Z,9.712109
2022-12-19T06:43:50.536Z,9.712080
2022-12-19T06:44:48.912Z,9.711988
2022-12-19T06:45:47.913Z,9.712003
2022-12-19T06:46:47.022Z,9.711889
2022-12-19T06:47:46.882Z,9.711722
2022-12-19T06:48:47.883Z,9.711645
2022-12-19T06:49:47.382Z,9.711831
2022-12-19T06:50:46.864Z,9.711754
2022-12-19T06:51:46.842Z,9.711535
2022-12-19T06:52:46.839Z,9.711560
2022-12-19T06:53:46.847Z,9.711358
2022-12-19T06:54:46.834Z,9.711515
2022-12-19T06:55:46.827Z,9.711195
2022-12-19T06:56:46.825Z,9.711293
2022-12-19T06:57:46.803Z,9.711370
2022-12-19T06:58:46.840Z,9.711492
2022-12-19T06:59:46.806Z,9.711508
2022-12-19T07:00:46.835Z,9.711511
2022-12-19T07:01:46.870Z,9.712001
2022-12-19T07:02:46.985Z,9.711816
2022-12-19T07:03:46.779Z,9.711880
2022-12-19T07:04:46.742Z,9.711483
2022-12-19T07:05:47.373Z,9.711457
2022-12-19T21:31:50.294Z,9.712292
2022-12-19T21:32:50.185Z,9.711788
2022-12-19T21:33:50.206Z,9.711726
2022-12-19T21:34:50.175Z,9.711611
2022-12-19T21:35:50.178Z,9.711423
2022-12-19T21:36:50.158Z,9.711504
2022-12-19T21:37:50.256Z,9.711633
2022-12-19T21:38:51.000Z,9.711495
2022-12-19T21:39:50.127Z,9.711444
2022-12-19T21:40:50.122Z,9.711508
2022-12-19T21:41:50.116Z,9.711568
2022-12-19T21:42:50.117Z,9.711637
2022-12-19T21:43:50.106Z,9.711621
2022-12-19T21:44:50.103Z,9.711638
2022-12-19T21:45:50.082Z,9.711588
2022-12-19T21:46:56.073Z,9.711628
2022-12-19T21:47:50.061Z,9.711656
2022-12-19T21:48:50.054Z,9.711581
2022-12-19T21:49:50.128Z,9.711557
2022-12-19T21:50:51.079Z,9.711536
2022-12-19T21:51:50.048Z,9.711514
2022-12-19T21:52:55.628Z,9.711455
2022-12-19T21:53:52.045Z,9.711514
2022-12-19T21:54:50.044Z,9.711598
2022-12-19T21:55:50.021Z,9.711543
2022-12-19T21:56:49.993Z,9.711600
2022-12-19T21:57:50.519Z,9.711654
2022-12-19T21:58:49.993Z,9.711527
2022-12-19T21:59:49.995Z,9.711477
